createdAt,value
2022-11-29T00:02:25.295Z,70.96
2022-11-29T00:04:58.456Z,71.09
2022-11-29T00:07:29.092Z,70.87
2022-11-29T00:10:00.442Z,71.33
2022-11-29T00:12:31.149Z,70.46
2022-11-29T00:15:01.369Z,70.53
2022-11-29T00:17:31.934Z,70.18
2022-11-29T00:20:02.879Z,69.72
2022-11-29T00:22:33.369Z,69.74
2022-11-29T00:25:04.295Z,69.74
2022-11-29T00:27:35.015Z,69.12
2022-11-29T00:30:06.019Z,68.86
2022-11-29T00:32:37.381Z,68.86
2022-11-29T00:35:13.324Z,68.77
2022-11-29T00:37:43.889Z,69.00
2022-11-29T00:40:14.514Z,68.63
2022-11-29T00:42:48.245Z,68.66
2022-11-29T00:45:18.765Z,68.03
2022-11-29T00:47:49.327Z,67.80
2022-11-29T00:50:28.930Z,67.66
2022-11-29T00:52:59.457Z,67.72
2022-11-29T00:55:30.396Z,67.67
2022-11-29T00:58:00.992Z,68.02
2022-11-29T01:00:31.759Z,67.94
2022-11-29T01:03:03.352Z,67.52
2022-11-29T01:05:34.688Z,67.37
2022-11-29T01:08:06.063Z,67.38
2022-11-29T01:10:36.670Z,66.87
2022-11-29T01:13:07.661Z,66.95
2022-11-29T01:15:38.427Z,66.63
2022-11-29T01:18:09.494Z,66.39
2022-11-29T01:20:39.909Z,66.62
2022-11-29T01:23:10.446Z,65.68
2022-11-29T01:25:40.891Z,65.58
2022-11-29T01:28:11.425Z,65.29
2022-11-29T01:30:41.913Z,65.46
2022-11-29T01:33:12.719Z,64.91
2022-11-29T01:35:52.090Z,65.25
2022-11-29T01:38:25.435Z,64.44
2022-11-29T01:41:05.107Z,64.69
2022-11-29T01:43:52.314Z,64.81
2022-11-29T01:46:25.293Z,64.57
2022-11-29T01:48:58.524Z,64.35
2022-11-29T01:51:30.108Z,64.26
2022-11-29T01:54:03.013Z,64.39
2022-11-29T01:56:35.028Z,64.41
2022-11-29T01:59:09.394Z,64.23
2022-11-29T02:01:40.538Z,63.92
2022-11-29T02:04:12.164Z,63.62
2022-11-29T02:06:43.131Z,64.28
2022-11-29T02:09:21.643Z,63.53
2022-11-29T02:12:03.880Z,63.26
2022-11-29T02:15:09.013Z,62.99
2022-11-29T02:17:55.780Z,63.05
2022-11-29T02:21:02.441Z,63.18
2022-11-29T02:24:05.591Z,63.87
2022-11-29T02:26:57.363Z,63.99
2022-11-29T02:30:01.317Z,63.04
2022-11-29T02:32:50.014Z,62.54
2022-11-29T02:35:53.908Z,62.74
2022-11-29T02:38:24.242Z,63.56
2022-11-29T02:41:07.287Z,64.18
2022-11-29T02:44:14.083Z,64.81
2022-11-29T02:46:51.456Z,65.48
2022-11-29T02:49:39.899Z,65.37
2022-11-29T02:52:34.231Z,65.37
2022-11-29T02:55:49.507Z,65.06
2022-11-29T02:58:37.607Z,65.16
2022-11-29T03:01:23.101Z,65.40
2022-11-29T03:03:56.450Z,64.39
2022-11-29T03:06:55.615Z,64.71
2022-11-29T03:09:32.255Z,64.91
2022-11-29T03:12:05.606Z,65.32
2022-11-29T03:15:03.468Z,65.50
2022-11-29T03:18:24.771Z,65.67
2022-11-29T03:21:20.701Z,65.67
2022-11-29T03:23:58.908Z,65.61
2022-11-29T03:27:00.517Z,65.04
2022-11-29T03:29:55.681Z,65.08
2022-11-29T03:32:42.012Z,64.65
2022-11-29T03:35:57.118Z,64.57
2022-11-29T03:38:46.936Z,64.33
2022-11-29T03:41:19.973Z,64.01
2022-11-29T03:44:28.067Z,64.61
2022-11-29T03:47:06.292Z,64.52
2022-11-29T03:50:12.002Z,64.88
2022-11-29T03:52:54.032Z,64.51
2022-11-29T03:56:11.369Z,65.12
2022-11-29T03:58:51.514Z,64.66
2022-11-29T04:01:43.867Z,65.53
2022-11-29T04:04:27.014Z,64.97
2022-11-29T04:07:12.594Z,64.41
2022-11-29T04:10:05.623Z,64.41
2022-11-29T04:13:10.602Z,64.52
2022-11-29T04:16:08.542Z,64.77
2022-11-29T04:18:58.671Z,65.28
2022-11-29T04:21:35.577Z,65.09
2022-11-29T04:24:27.759Z,64.65
2022-11-29T04:27:12.862Z,65.22
2022-11-29T04:29:52.359Z,65.75
2022-11-29T04:32:44.017Z,65.76
2022-11-29T04:35:20.442Z,65.84
2022-11-29T04:38:02.450Z,65.89
2022-11-29T04:40:44.246Z,66.07
2022-11-29T04:43:41.252Z,66.26
2022-11-29T04:46:21.432Z,66.27
2022-11-29T04:48:54.457Z,66.35
2022-11-29T04:51:33.386Z,66.11
2022-11-29T04:54:12.559Z,66.10
2022-11-29T04:56:45.195Z,65.79
2022-11-29T04:59:54.041Z,66.20
2022-11-29T05:02:34.202Z,65.71
2022-11-29T05:05:29.241Z,66.10
2022-11-29T05:08:26.516Z,65.59
2022-11-29T05:11:26.344Z,65.39
2022-11-29T05:14:00.678Z,65.07
2022-11-29T05:16:49.762Z,64.80
2022-11-29T05:19:35.236Z,64.38
2022-11-29T05:22:26.568Z,64.04
2022-11-29T05:25:02.172Z,63.66
2022-11-29T05:28:04.469Z,63.02
2022-11-29T05:31:06.114Z,62.55
2022-11-29T05:34:13.311Z,61.24
2022-11-29T05:37:10.424Z,60.94
2022-11-29T05:39:59.666Z,60.13
2022-11-29T05:42:40.522Z,59.54
2022-11-29T05:45:25.082Z,59.15
2022-11-29T05:48:26.622Z,58.53
2022-11-29T05:51:07.291Z,58.83
2022-11-29T05:53:48.953Z,59.40
2022-11-29T05:56:49.453Z,59.69
2022-11-29T05:59:26.001Z,58.90
2022-11-29T06:02:30.682Z,58.42
2022-11-29T06:05:32.620Z,59.13
2022-11-29T06:08:35.221Z,58.93
2022-11-29T06:11:28.640Z,58.50
2022-11-29T06:14:21.821Z,58.35
2022-11-29T06:16:53.013Z,58.73
2022-11-29T06:19:54.045Z,59.00
2022-11-29T06:22:35.258Z,59.00
2022-11-29T06:26:03.688Z,59.57
2022-11-29T06:28:56.808Z,58.20
2022-11-29T06:31:34.813Z,57.98
2022-11-29T06:34:11.362Z,58.83
2022-11-29T06:37:04.205Z,58.57
2022-11-29T06:39:35.957Z,58.37
2022-11-29T06:42:06.863Z,58.43
2022-11-29T06:44:37.939Z,58.21
2022-11-29T06:47:32.384Z,59.03
2022-11-29T06:50:26.124Z,58.30
2022-11-29T06:53:17.494Z,58.16
2022-11-29T06:56:00.019Z,58.60
2022-11-29T06:58:36.383Z,58.34
2022-11-29T07:01:28.591Z,58.39
2022-11-29T07:04:52.610Z,57.74
2022-11-29T07:07:25.236Z,58.31
2022-11-29T07:10:00.472Z,59.57
2022-11-29T07:12:31.683Z,59.50
2022-11-29T07:15:02.571Z,59.40
2022-11-29T07:17:41.044Z,59.54
2022-11-29T07:20:23.680Z,60.06
2022-11-29T07:23:15.303Z,59.77
2022-11-29T07:25:51.192Z,60.02
2022-11-29T07:28:27.695Z,59.70
2022-11-29T07:31:31.783Z,59.86
2022-11-29T07:34:19.977Z,59.57
2022-11-29T07:37:12.616Z,59.96
2022-11-29T07:40:04.933Z,60.05
2022-11-29T07:42:45.258Z,60.82
2022-11-29T07:45:27.731Z,60.13
2022-11-29T07:47:58.212Z,59.86
2022-11-29T07:50:29.417Z,59.57
2022-11-29T07:53:01.071Z,59.32
2022-11-29T07:55:33.368Z,58.90
2022-11-29T07:58:06.737Z,58.43
2022-11-29T08:00:37.413Z,58.45
2022-11-29T08:03:07.782Z,58.59
2022-11-29T08:05:39.602Z,58.47
2022-11-29T08:08:10.733Z,58.70
2022-11-29T08:10:42.060Z,58.59
2022-11-29T08:13:12.819Z,58.21
2022-11-29T08:15:46.852Z,55.63
2022-11-29T08:18:17.794Z,53.28
2022-11-29T08:20:48.876Z,52.81
2022-11-29T08:23:19.145Z,52.43
2022-11-29T08:25:50.338Z,52.11
2022-11-29T08:28:20.632Z,51.76
2022-11-29T08:30:51.193Z,51.82
2022-11-29T08:33:21.455Z,51.63
2022-11-29T08:35:51.963Z,51.50
2022-11-29T08:38:25.054Z,54.63
2022-11-29T08:40:57.931Z,57.44
2022-11-29T08:43:29.186Z,59.38
2022-11-29T08:46:00.949Z,60.09
2022-11-29T08:48:31.869Z,60.21
2022-11-29T08:51:02.871Z,61.33
2022-11-29T08:53:42.572Z,61.89
2022-11-29T08:57:04.534Z,62.33
2022-11-29T08:59:07.569Z,60.99
2022-11-29T09:01:37.949Z,61.32
2022-11-29T09:04:11.591Z,60.74
2022-11-29T09:06:46.367Z,60.86
2022-11-29T09:09:17.420Z,60.67
2022-11-29T09:11:49.562Z,60.73
2022-11-29T09:14:23.168Z,60.94
2022-11-29T09:16:53.992Z,61.07
2022-11-29T09:19:28.378Z,60.87
2022-11-29T09:22:02.298Z,61.14
2022-11-29T09:24:35.286Z,59.13
2022-11-29T09:27:05.602Z,57.23
2022-11-29T09:29:36.209Z,56.39
2022-11-29T09:32:07.698Z,56.17
2022-11-29T09:34:38.448Z,55.39
2022-11-29T09:37:08.962Z,55.45
2022-11-29T09:39:41.188Z,54.89
2022-11-29T09:42:32.656Z,55.56
2022-11-29T09:45:03.263Z,55.23
2022-11-29T09:47:40.670Z,55.47
2022-11-29T09:50:44.144Z,55.23
2022-11-29T09:53:48.455Z,55.30
2022-11-29T09:56:46.141Z,55.09
2022-11-29T09:59:43.760Z,55.24
2022-11-29T10:02:35.489Z,56.02
2022-11-29T10:05:50.705Z,55.66
2022-11-29T10:08:34.923Z,55.25
2022-11-29T10:11:18.888Z,55.46
2022-11-29T10:13:55.180Z,56.03
2022-11-29T10:16:34.796Z,55.77
2022-11-29T10:19:44.470Z,56.27
2022-11-29T10:22:14.869Z,56.58
2022-11-29T10:24:48.657Z,56.99
2022-11-29T10:27:22.163Z,57.11
2022-11-29T10:29:53.548Z,57.45
2022-11-29T10:32:25.809Z,57.27
2022-11-29T10:34:58.505Z,57.66
2022-11-29T10:37:33.657Z,57.53
2022-11-29T10:40:09.032Z,57.84
2022-11-29T10:42:55.087Z,58.15
2022-11-29T10:45:31.605Z,57.99
2022-11-29T10:48:12.026Z,58.18
2022-11-29T10:50:45.051Z,57.84
2022-11-29T10:53:25.137Z,57.99
2022-11-29T10:56:07.254Z,58.09
2022-11-29T10:58:38.431Z,58.48
2022-11-29T11:01:10.213Z,58.96
2022-11-29T11:03:43.109Z,59.39
2022-11-29T11:06:19.973Z,59.53
2022-11-29T11:08:56.919Z,59.74
2022-11-29T11:11:33.533Z,59.62
2022-11-29T11:14:28.633Z,60.27
2022-11-29T11:17:27.158Z,59.92
2022-11-29T11:20:06.623Z,59.86
2022-11-29T11:22:40.783Z,59.63
2022-11-29T11:25:29.835Z,59.58
2022-11-29T11:28:14.692Z,59.37
2022-11-29T11:30:59.052Z,59.32
2022-11-29T11:33:32.252Z,59.52
2022-11-29T11:36:10.799Z,59.54
2022-11-29T11:39:13.053Z,58.99
2022-11-29T11:42:02.541Z,58.75
2022-11-29T11:44:49.216Z,59.26
2022-11-29T11:47:28.260Z,58.90
2022-11-29T11:50:13.557Z,59.07
2022-11-29T11:52:54.163Z,59.12
2022-11-29T11:55:38.318Z,59.25
2022-11-29T11:58:14.806Z,59.23
2022-11-29T12:01:07.587Z,59.68
2022-11-29T12:04:01.037Z,59.62
2022-11-29T12:06:31.355Z,59.51
2022-11-29T12:09:27.690Z,59.70
2022-11-29T12:12:21.969Z,59.66
2022-11-29T12:14:57.598Z,59.78
2022-11-29T12:17:39.494Z,60.08
2022-11-29T12:20:29.511Z,60.14
2022-11-29T12:23:16.068Z,59.92
2022-11-29T12:26:07.202Z,60.35
2022-11-29T12:28:41.780Z,60.38
2022-11-29T12:31:18.346Z,60.18
2022-11-29T12:34:15.776Z,60.41
2022-11-29T12:37:11.340Z,60.70
2022-11-29T12:39:59.550Z,60.61
2022-11-29T12:43:01.031Z,60.45
2022-11-29T12:45:36.832Z,61.66
2022-11-29T12:48:44.078Z,61.76
2022-11-29T12:51:37.079Z,61.25
2022-11-29T12:54:21.800Z,60.66
2022-11-29T12:57:44.210Z,60.74
2022-11-29T13:00:20.398Z,60.93
2022-11-29T13:02:51.221Z,61.08
2022-11-29T13:05:44.767Z,61.12
2022-11-29T13:08:34.709Z,60.63
2022-11-29T13:11:10.593Z,60.90
2022-11-29T13:14:03.808Z,60.86
2022-11-29T13:17:06.846Z,60.78
2022-11-29T13:19:46.136Z,61.04
2022-11-29T13:22:29.445Z,60.97
2022-11-29T13:25:05.578Z,61.21
2022-11-29T13:27:42.050Z,61.17
2022-11-29T13:30:16.694Z,61.55
2022-11-29T13:32:52.914Z,60.76
2022-11-29T13:35:35.836Z,61.03
2022-11-29T13:38:35.514Z,60.96
2022-11-29T13:41:28.958Z,60.87
2022-11-29T13:44:26.536Z,61.23
2022-11-29T13:47:10.674Z,61.00
2022-11-29T13:50:03.398Z,61.22
2022-11-29T13:52:43.395Z,61.68
2022-11-29T13:55:29.542Z,62.09
2022-11-29T13:58:20.936Z,61.53
2022-11-29T14:00:53.180Z,61.75
2022-11-29T14:03:31.033Z,62.63
2022-11-29T14:06:13.692Z,62.30
2022-11-29T14:11:44.900Z,61.54
2022-11-29T14:14:18.039Z,62.24
2022-11-29T14:16:52.309Z,62.19
2022-11-29T14:19:27.627Z,61.98
2022-11-29T14:22:09.045Z,61.93
2022-11-29T14:24:50.307Z,61.93
2022-11-29T14:27:31.681Z,61.76
2022-11-29T14:30:32.192Z,62.00
2022-11-29T14:33:50.453Z,62.24
2022-11-29T14:36:57.663Z,61.88
2022-11-29T14:39:49.617Z,62.00
2022-11-29T14:42:41.027Z,62.11
2022-11-29T14:45:32.925Z,62.44
2022-11-29T14:48:14.149Z,61.99
2022-11-29T14:51:21.891Z,61.98
2022-11-29T14:54:23.807Z,62.34
2022-11-29T14:56:58.530Z,62.42
2022-11-29T14:59:50.465Z,62.60
2022-11-29T15:06:01.996Z,63.21
2022-11-29T15:09:15.716Z,63.42
2022-11-29T15:12:31.845Z,63.25
2022-11-29T15:15:40.405Z,63.51
2022-11-29T15:18:52.494Z,63.67
2022-11-29T15:22:15.579Z,63.53
2022-11-29T15:25:02.298Z,64.00
2022-11-29T15:27:50.401Z,64.09
2022-11-29T15:30:32.965Z,64.04
2022-11-29T15:33:13.223Z,63.77
2022-11-29T15:35:57.506Z,64.01
2022-11-29T15:38:33.692Z,63.86
2022-11-29T15:41:12.417Z,63.58
2022-11-29T15:44:10.112Z,63.70
2022-11-29T15:46:43.924Z,63.68
2022-11-29T15:49:33.763Z,64.02
2022-11-29T15:52:20.071Z,63.72
2022-11-29T15:55:03.425Z,63.94
2022-11-29T15:57:41.256Z,63.83
2022-11-29T16:00:28.786Z,64.01
2022-11-29T16:03:14.841Z,64.28
2022-11-29T16:05:59.703Z,63.93
2022-11-29T16:08:47.884Z,64.09
2022-11-29T16:11:28.921Z,64.12
2022-11-29T16:14:34.196Z,64.09
2022-11-29T16:17:23.463Z,64.45
2022-11-29T16:20:25.625Z,64.14
2022-11-29T16:23:40.661Z,64.04
2022-11-29T16:26:46.762Z,64.52
2022-11-29T16:29:41.596Z,64.40
2022-11-29T16:32:36.815Z,64.14
2022-11-29T16:35:38.461Z,64.34
2022-11-29T16:38:48.845Z,64.21
2022-11-29T16:41:48.694Z,64.41
2022-11-29T16:44:56.104Z,64.15
2022-11-29T16:48:00.026Z,64.23
2022-11-29T16:50:58.896Z,64.21
2022-11-29T16:53:57.756Z,65.01
2022-11-29T16:56:39.750Z,64.92
2022-11-29T16:59:27.594Z,64.66
2022-11-29T17:02:17.402Z,65.25
2022-11-29T17:04:56.570Z,65.50
2022-11-29T17:07:40.176Z,65.27
2022-11-29T17:10:20.369Z,65.40
2022-11-29T17:12:53.598Z,65.45
2022-11-29T17:15:26.000Z,64.94
2022-11-29T17:17:58.948Z,65.40
2022-11-29T17:20:31.855Z,65.05
2022-11-29T17:23:05.979Z,64.94
2022-11-29T17:25:38.407Z,64.84
2022-11-29T17:28:11.129Z,65.14
2022-11-29T17:30:43.532Z,65.30
2022-11-29T17:33:17.204Z,65.07
2022-11-29T17:35:50.203Z,64.89
2022-11-29T17:38:22.816Z,64.75
2022-11-29T17:40:55.430Z,64.78
2022-11-29T17:43:29.073Z,65.04
2022-11-29T17:46:12.924Z,65.59
2022-11-29T17:48:48.716Z,65.28
2022-11-29T17:51:50.548Z,65.04
2022-11-29T17:54:20.467Z,65.00
2022-11-29T17:56:53.664Z,64.70
2022-11-29T17:59:28.037Z,64.92
2022-11-29T18:02:00.666Z,65.24
2022-11-29T18:04:38.869Z,65.25
2022-11-29T18:07:11.786Z,65.10
2022-11-29T18:09:44.447Z,65.47
2022-11-29T18:12:17.236Z,64.99
2022-11-29T18:14:53.850Z,65.02
2022-11-29T18:17:26.649Z,65.35
2022-11-29T18:19:59.294Z,65.23
2022-11-29T18:22:31.956Z,65.29
2022-11-29T18:25:30.753Z,65.56
2022-11-29T18:27:57.225Z,65.22
2022-11-29T18:30:30.291Z,65.83
2022-11-29T18:33:02.834Z,65.91
2022-11-29T18:35:35.424Z,65.38
2022-11-29T18:38:16.423Z,65.85
2022-11-29T18:40:49.225Z,65.97
2022-11-29T18:43:21.781Z,65.70
2022-11-29T18:45:57.756Z,66.17
2022-11-29T18:48:32.648Z,65.72
2022-11-29T18:51:08.523Z,65.71
2022-11-29T18:53:41.376Z,65.73
2022-11-29T18:56:17.092Z,66.10
2022-11-29T18:58:58.199Z,65.71
2022-11-29T19:01:33.176Z,65.92
2022-11-29T19:04:05.405Z,65.95
2022-11-29T19:06:39.942Z,65.80
2022-11-29T19:09:17.692Z,65.80
2022-11-29T19:11:53.057Z,65.93
2022-11-29T19:14:25.360Z,65.79
2022-11-29T19:16:57.728Z,65.78
2022-11-29T19:19:34.234Z,65.95
2022-11-29T19:22:06.812Z,65.97
2022-11-29T19:24:39.197Z,65.77
2022-11-29T19:27:12.060Z,66.09
2022-11-29T19:29:44.363Z,66.44
2022-11-29T19:32:16.564Z,66.10
2022-11-29T19:34:49.463Z,65.97
2022-11-29T19:37:22.304Z,66.25
2022-11-29T19:39:55.120Z,66.22
2022-11-29T19:42:28.083Z,66.60
2022-11-29T19:45:19.482Z,66.21
2022-11-29T19:47:50.956Z,65.80
2022-11-29T19:50:21.594Z,66.49
2022-11-29T19:52:52.415Z,66.49
2022-11-29T19:55:23.095Z,66.52
2022-11-29T19:57:54.327Z,66.49
2022-11-29T20:00:24.882Z,66.66
2022-11-29T20:02:56.178Z,66.96
2022-11-29T20:05:28.153Z,66.92
2022-11-29T20:07:58.469Z,66.86
2022-11-29T20:10:29.210Z,67.12
2022-11-29T20:12:59.553Z,66.83
2022-11-29T20:15:30.281Z,66.82
2022-11-29T20:18:04.025Z,66.72
2022-11-29T20:20:35.250Z,66.70
2022-11-29T20:23:06.004Z,66.71
2022-11-29T20:25:37.323Z,66.31
2022-11-29T20:28:07.994Z,66.41
2022-11-29T20:30:38.561Z,66.25
2022-11-29T20:33:10.664Z,66.36
2022-11-29T20:35:41.777Z,66.50
2022-11-29T20:38:35.602Z,66.56
2022-11-29T20:41:22.341Z,66.51
2022-11-29T20:44:33.536Z,66.60
2022-11-29T20:48:12.120Z,66.66
2022-11-29T20:50:45.587Z,66.61
2022-11-29T20:53:30.930Z,66.97
2022-11-29T20:56:01.666Z,67.34
2022-11-29T20:58:32.443Z,66.85
2022-11-29T21:01:04.893Z,66.58
2022-11-29T21:03:35.877Z,66.54
2022-11-29T21:06:07.578Z,66.77
2022-11-29T21:08:38.717Z,66.72
2022-11-29T21:11:11.230Z,66.68
2022-11-29T21:13:42.650Z,66.67
2022-11-29T21:16:14.455Z,67.19
2022-11-29T21:18:45.452Z,66.93
2022-11-29T21:21:30.628Z,66.74
2022-11-29T21:24:04.851Z,66.84
2022-11-29T21:26:44.338Z,67.21
2022-11-29T21:29:22.137Z,67.65
2022-11-29T21:31:54.884Z,67.19
2022-11-29T21:34:25.104Z,67.40
2022-11-29T21:36:58.546Z,67.38
2022-11-29T21:39:35.702Z,67.44
2022-11-29T21:42:06.667Z,67.79
2022-11-29T21:44:37.256Z,68.13
2022-11-29T21:47:08.741Z,67.87
2022-11-29T21:49:39.081Z,67.87
2022-11-29T21:52:09.572Z,67.94
2022-11-29T21:54:41.023Z,68.06
2022-11-29T21:57:14.204Z,68.38
2022-11-29T21:59:47.770Z,68.59
2022-11-29T22:02:18.047Z,68.12
2022-11-29T22:04:49.383Z,68.54
2022-11-29T22:07:20.381Z,68.32
2022-11-29T22:09:53.756Z,68.34
2022-11-29T22:12:34.194Z,68.88
2022-11-29T22:15:09.279Z,68.74
2022-11-29T22:17:39.764Z,68.66
2022-11-29T22:20:10.161Z,68.87
2022-11-29T22:22:40.854Z,68.80
2022-11-29T22:25:13.598Z,68.88
2022-11-29T22:27:43.895Z,68.94
2022-11-29T22:30:14.683Z,68.81
2022-11-29T22:32:45.484Z,68.42
2022-11-29T22:35:15.918Z,68.35
2022-11-29T22:37:49.467Z,68.66
2022-11-29T22:40:20.580Z,68.71
2022-11-29T22:42:51.514Z,68.20
2022-11-29T22:45:24.796Z,68.13
2022-11-29T22:47:56.517Z,68.47
2022-11-29T22:50:27.734Z,68.64
2022-11-29T22:52:58.285Z,68.63
2022-11-29T22:55:28.828Z,68.12
2022-11-29T22:58:02.352Z,68.29
2022-11-29T23:00:33.394Z,68.52
2022-11-29T23:03:03.928Z,68.35
2022-11-29T23:05:34.652Z,68.21
2022-11-29T23:08:05.074Z,68.48
2022-11-29T23:10:37.589Z,68.55
2022-11-29T23:13:08.421Z,68.40
2022-11-29T23:15:39.015Z,68.49
2022-11-29T23:18:12.115Z,68.29
2022-11-29T23:20:42.671Z,68.43
2022-11-29T23:23:13.195Z,68.72
2022-11-29T23:25:51.142Z,68.92
2022-11-29T23:28:21.370Z,69.00
2022-11-29T23:30:52.612Z,68.77
2022-11-29T23:33:25.120Z,68.79
2022-11-29T23:36:04.105Z,68.67
2022-11-29T23:38:35.343Z,68.54
2022-11-29T23:41:07.465Z,69.02
2022-11-29T23:43:38.990Z,69.04
2022-11-29T23:46:12.932Z,69.11
2022-11-29T23:48:43.910Z,68.76
2022-11-29T23:51:15.278Z,68.68
2022-11-29T23:53:47.674Z,68.11
2022-11-29T23:56:18.950Z,68.35
2022-11-29T23:58:49.781Z,68.22
